Time;durP1;ratioP1;P1;durP2;ratioP2;P2;SDS_P1;SDS_P2;PMS_P1;PMS_P2;Temp;Humidity;BMP_temperature;BMP_pressure;BME280_temperature;BME280_humidity;BME280_pressure;Samples;Min_cycle;Max_cycle;Signal;HPM_P1;HPM_P2
2021/08/30 00:00:49;;;;;;;2.900001;2.65;;;;;;;13.15;100;95005.84;;;;
2021/08/30 00:01:50;;;;;;;2.900001;2.65;;;;;;;13.15;100;95005.84;;;;
2021/08/30 00:02:50;;;;;;;2.900001;2.65;;;;;;;13.15;100;95005.84;;;;
2021/08/30 00:03:51;;;;;;;2.900001;2.65;;;;;;;13.15;100;95005.84;;;;
2021/08/30 00:04:51;;;;;;;2.900001;2.65;;;;;;;13.15;100;95005.84;;;;
2021/08/30 00:05:52;;;;;;;2.900001;2.65;;;;;;;13.15;100;95005.84;;;;
2021/08/30 00:06:53;;;;;;;2.900001;2.65;;;;;;;13.15;100;95005.84;;;;
2021/08/30 00:07:53;;;;;;;2.900001;2.65;;;;;;;13.15;100;95005.84;;;;
2021/08/30 00:08:54;;;;;;;2.900001;2.65;;;;;;;13.15;100;95005.84;;;;
2021/08/30 00:09:54;;;;;;;2.900001;2.65;;;;;;;13.15;100;95005.84;;;;
2021/08/30 00:10:55;;;;;;;2.5;2.3;;;;;;;13.18;100;95004.9;;;;
2021/08/30 00:11:55;;;;;;;2.5;2.3;;;;;;;13.18;100;95004.9;;;;
2021/08/30 00:12:56;;;;;;;2.5;2.3;;;;;;;13.18;100;95004.9;;;;
2021/08/30 00:13:56;;;;;;;2.5;2.3;;;;;;;13.18;100;95004.9;;;;
2021/08/30 00:14:57;;;;;;;2.5;2.3;;;;;;;13.18;100;95004.9;;;;
2021/08/30 00:15:57;;;;;;;2.5;2.3;;;;;;;13.18;100;95004.9;;;;
2021/08/30 00:16:58;;;;;;;2.5;2.3;;;;;;;13.18;100;95004.9;;;;
2021/08/30 00:17:59;;;;;;;2.5;2.3;;;;;;;13.18;100;95004.9;;;;
2021/08/30 00:19:00;;;;;;;2.5;2.3;;;;;;;13.18;100;95004.9;;;;
2021/08/30 00:20:00;;;;;;;2.5;2.3;;;;;;;13.18;100;95004.9;;;;
2021/08/30 00:21:01;;;;;;;2.35;2.15;;;;;;;13.19;100;95000.98;;;;
2021/08/30 00:22:02;;;;;;;2.35;2.15;;;;;;;13.19;100;95000.98;;;;
2021/08/30 00:23:03;;;;;;;2.35;2.15;;;;;;;13.19;100;95000.98;;;;
2021/08/30 00:24:04;;;;;;;2.35;2.15;;;;;;;13.19;100;95000.98;;;;
2021/08/30 00:25:05;;;;;;;2.35;2.15;;;;;;;13.19;100;95000.98;;;;
2021/08/30 00:26:07;;;;;;;2.35;2.15;;;;;;;13.19;100;95000.98;;;;
2021/08/30 00:27:07;;;;;;;2.35;2.15;;;;;;;13.19;100;95000.98;;;;
2021/08/30 00:28:08;;;;;;;2.35;2.15;;;;;;;13.19;100;95000.98;;;;
2021/08/30 00:29:08;;;;;;;2.35;2.15;;;;;;;13.19;100;95000.98;;;;
2021/08/30 00:30:09;;;;;;;2.35;2.15;;;;;;;13.19;100;95000.98;;;;
2021/08/30 00:31:11;;;;;;;2.35;2.15;;;;;;;13.19;100;95000.98;;;;
2021/08/30 00:32:12;;;;;;;2.2;2;;;;;;;13.13;100;94995.64;;;;
2021/08/30 00:33:12;;;;;;;2.2;2;;;;;;;13.13;100;94995.64;;;;
2021/08/30 00:34:13;;;;;;;2.2;2;;;;;;;13.13;100;94995.64;;;;
2021/08/30 00:35:13;;;;;;;2.2;2;;;;;;;13.13;100;94995.64;;;;
2021/08/30 00:36:14;;;;;;;2.2;2;;;;;;;13.13;100;94995.64;;;;
2021/08/30 00:37:14;;;;;;;2.2;2;;;;;;;13.13;100;94995.64;;;;
2021/08/30 00:38:15;;;;;;;2.2;2;;;;;;;13.13;100;94995.64;;;;
2021/08/30 00:39:16;;;;;;;2.2;2;;;;;;;13.13;100;94995.64;;;;
2021/08/30 00:40:17;;;;;;;2.2;2;;;;;;;13.13;100;94995.64;;;;
2021/08/30 00:41:19;;;;;;;2.2;2;;;;;;;13.13;100;94995.64;;;;
2021/08/30 00:42:20;;;;;;;2.4;2.2;;;;;;;13.16;100;94995.67;;;;
2021/08/30 00:43:20;;;;;;;2.4;2.2;;;;;;;13.16;100;94995.67;;;;
2021/08/30 00:44:21;;;;;;;2.4;2.2;;;;;;;13.16;100;94995.67;;;;
2021/08/30 00:45:22;;;;;;;2.4;2.2;;;;;;;13.16;100;94995.67;;;;
2021/08/30 00:46:23;;;;;;;2.4;2.2;;;;;;;13.16;100;94995.67;;;;
2021/08/30 00:47:23;;;;;;;2.4;2.2;;;;;;;13.16;100;94995.67;;;;
2021/08/30 00:48:24;;;;;;;2.4;2.2;;;;;;;13.16;100;94995.67;;;;
2021/08/30 00:49:24;;;;;;;2.4;2.2;;;;;;;13.16;100;94995.67;;;;
2021/08/30 00:50:25;;;;;;;2.4;2.2;;;;;;;13.16;100;94995.67;;;;
2021/08/30 00:51:26;;;;;;;2.4;2.2;;;;;;;13.16;100;94995.67;;;;
2021/08/30 00:52:26;;;;;;;2.4;2.2;;;;;;;13.16;100;94995.67;;;;
2021/08/30 00:53:27;;;;;;;2.3;2.1;;;;;;;13.15;100;94986.86;;;;
2021/08/30 00:54:27;;;;;;;2.3;2.1;;;;;;;13.15;100;94986.86;;;;
2021/08/30 00:55:29;;;;;;;2.3;2.1;;;;;;;13.15;100;94986.86;;;;
2021/08/30 00:56:29;;;;;;;2.3;2.1;;;;;;;13.15;100;94986.86;;;;
2021/08/30 00:57:30;;;;;;;2.3;2.1;;;;;;;13.15;100;94986.86;;;;
2021/08/30 00:58:31;;;;;;;2.3;2.1;;;;;;;13.15;100;94986.86;;;;
2021/08/30 00:59:31;;;;;;;2.3;2.1;;;;;;;13.15;100;94986.86;;;;
2021/08/30 01:00:32;;;;;;;2.3;2.1;;;;;;;13.15;100;94986.86;;;;
2021/08/30 01:01:32;;;;;;;2.3;2.1;;;;;;;13.15;100;94986.86;;;;
2021/08/30 01:02:33;;;;;;;2.3;2.1;;;;;;;13.15;100;94986.86;;;;
2021/08/30 01:03:33;;;;;;;2.2;2;;;;;;;13.13;100;94992.52;;;;
2021/08/30 01:04:34;;;;;;;2.2;2;;;;;;;13.13;100;94992.52;;;;
2021/08/30 01:05:36;;;;;;;2.2;2;;;;;;;13.13;100;94992.52;;;;
2021/08/30 01:06:41;;;;;;;2.2;2;;;;;;;13.13;100;94992.52;;;;
2021/08/30 01:07:44;;;;;;;2.2;2;;;;;;;13.13;100;94992.52;;;;
2021/08/30 01:08:56;;;;;;;2.2;2;;;;;;;13.13;100;94992.52;;;;
2021/08/30 01:10:06;;;;;;;2.2;2;;;;;;;13.13;100;94992.52;;;;
2021/08/30 01:11:11;;;;;;;2.2;2;;;;;;;13.13;100;94992.52;;;;
2021/08/30 01:12:17;;;;;;;2.2;2;;;;;;;13.13;100;94992.52;;;;
2021/08/30 01:13:23;;;;;;;2.2;2;;;;;;;13.13;100;94992.52;;;;
2021/08/30 01:14:31;;;;;;;2.15;2.05;;;;;;;13.11;100;94988.86;;;;
2021/08/30 01:15:39;;;;;;;2.15;2.05;;;;;;;13.11;100;94988.86;;;;
2021/08/30 01:16:42;;;;;;;2.15;2.05;;;;;;;13.11;100;94988.86;;;;
2021/08/30 01:17:44;;;;;;;2.15;2.05;;;;;;;13.11;100;94988.86;;;;
2021/08/30 01:18:46;;;;;;;2.15;2.05;;;;;;;13.11;100;94988.86;;;;
2021/08/30 01:19:49;;;;;;;2.15;2.05;;;;;;;13.11;100;94988.86;;;;
2021/08/30 01:21:00;;;;;;;2.15;2.05;;;;;;;13.11;100;94988.86;;;;
2021/08/30 01:22:13;;;;;;;2.15;2.05;;;;;;;13.11;100;94988.86;;;;
2021/08/30 01:23:15;;;;;;;2.15;2.05;;;;;;;13.11;100;94988.86;;;;
2021/08/30 01:24:16;;;;;;;2.15;2.05;;;;;;;13.11;100;94988.86;;;;
2021/08/30 01:25:20;;;;;;;2.25;2.05;;;;;;;13.08;100;94973.92;;;;
2021/08/30 01:26:22;;;;;;;2.25;2.05;;;;;;;13.08;100;94973.92;;;;
2021/08/30 01:27:25;;;;;;;2.25;2.05;;;;;;;13.08;100;94973.92;;;;
2021/08/30 01:28:28;;;;;;;2.25;2.05;;;;;;;13.08;100;94973.92;;;;
2021/08/30 01:29:33;;;;;;;2.25;2.05;;;;;;;13.08;100;94973.92;;;;
2021/08/30 01:30:49;;;;;;;2.25;2.05;;;;;;;13.08;100;94973.92;;;;
2021/08/30 01:31:54;;;;;;;2.25;2.05;;;;;;;13.08;100;94973.92;;;;
2021/08/30 01:33:00;;;;;;;2.25;2.05;;;;;;;13.08;100;94973.92;;;;
2021/08/30 01:34:01;;;;;;;2.25;2.05;;;;;;;13.08;100;94973.92;;;;
2021/08/30 01:35:02;;;;;;;2.25;2.05;;;;;;;13.08;100;94973.92;;;;
2021/08/30 01:36:05;;;;;;;3.2;2.55;;;;;;;13;100;94968.55;;;;
2021/08/30 01:37:06;;;;;;;3.2;2.55;;;;;;;13;100;94968.55;;;;
2021/08/30 01:38:07;;;;;;;3.2;2.55;;;;;;;13;100;94968.55;;;;
2021/08/30 01:39:08;;;;;;;3.2;2.55;;;;;;;13;100;94968.55;;;;
2021/08/30 01:40:11;;;;;;;3.2;2.55;;;;;;;13;100;94968.55;;;;
2021/08/30 01:41:14;;;;;;;3.2;2.55;;;;;;;13;100;94968.55;;;;
2021/08/30 01:42:16;;;;;;;3.2;2.55;;;;;;;13;100;94968.55;;;;
2021/08/30 01:43:17;;;;;;;3.2;2.55;;;;;;;13;100;94968.55;;;;
2021/08/30 01:44:18;;;;;;;3.2;2.55;;;;;;;13;100;94968.55;;;;
2021/08/30 01:45:19;;;;;;;3.2;2.55;;;;;;;13;100;94968.55;;;;
2021/08/30 01:46:23;;;;;;;3.15;2.8;;;;;;;12.93;100;94973.36;;;;
2021/08/30 01:47:24;;;;;;;3.15;2.8;;;;;;;12.93;100;94973.36;;;;
2021/08/30 01:48:26;;;;;;;3.15;2.8;;;;;;;12.93;100;94973.36;;;;
2021/08/30 01:49:26;;;;;;;3.15;2.8;;;;;;;12.93;100;94973.36;;;;
2021/08/30 01:50:29;;;;;;;3.15;2.8;;;;;;;12.93;100;94973.36;;;;
2021/08/30 01:51:31;;;;;;;3.15;2.8;;;;;;;12.93;100;94973.36;;;;
2021/08/30 01:52:33;;;;;;;3.15;2.8;;;;;;;12.93;100;94973.36;;;;
2021/08/30 01:53:37;;;;;;;3.15;2.8;;;;;;;12.93;100;94973.36;;;;
2021/08/30 01:54:39;;;;;;;3.15;2.8;;;;;;;12.93;100;94973.36;;;;
2021/08/30 01:55:43;;;;;;;3.15;2.8;;;;;;;12.93;100;94973.36;;;;
2021/08/30 01:56:47;;;;;;;3.15;2.8;;;;;;;12.93;100;94973.36;;;;
2021/08/30 02:03:04;;;;;;;2.7;2.45;;;;;;;12.89;100;94968.7;;;;
2021/08/30 02:04:05;;;;;;;2.7;2.45;;;;;;;12.89;100;94968.7;;;;
2021/08/30 02:05:06;;;;;;;2.7;2.45;;;;;;;12.89;100;94968.7;;;;
2021/08/30 02:06:07;;;;;;;2.7;2.45;;;;;;;12.89;100;94968.7;;;;
2021/08/30 02:07:07;;;;;;;2.7;2.45;;;;;;;12.89;100;94968.7;;;;
2021/08/30 02:08:08;;;;;;;2.7;2.5;;;;;;;12.85;100;94961.63;;;;
2021/08/30 02:09:09;;;;;;;2.7;2.5;;;;;;;12.85;100;94961.63;;;;
2021/08/30 02:10:09;;;;;;;2.7;2.5;;;;;;;12.85;100;94961.63;;;;
2021/08/30 02:11:14;;;;;;;2.7;2.5;;;;;;;12.85;100;94961.63;;;;
2021/08/30 02:12:14;;;;;;;2.7;2.5;;;;;;;12.85;100;94961.63;;;;
2021/08/30 02:13:15;;;;;;;2.7;2.5;;;;;;;12.85;100;94961.63;;;;
2021/08/30 02:14:17;;;;;;;2.7;2.5;;;;;;;12.85;100;94961.63;;;;
2021/08/30 02:15:17;;;;;;;2.7;2.5;;;;;;;12.85;100;94961.63;;;;
2021/08/30 02:16:18;;;;;;;2.7;2.5;;;;;;;12.85;100;94961.63;;;;
2021/08/30 02:17:18;;;;;;;2.7;2.5;;;;;;;12.85;100;94961.63;;;;
2021/08/30 02:18:26;;;;;;;2.65;2.45;;;;;;;12.82;100;94959.45;;;;
2021/08/30 02:19:31;;;;;;;2.65;2.45;;;;;;;12.82;100;94959.45;;;;
2021/08/30 02:20:40;;;;;;;2.65;2.45;;;;;;;12.82;100;94959.45;;;;
2021/08/30 02:21:48;;;;;;;2.65;2.45;;;;;;;12.82;100;94959.45;;;;
2021/08/30 02:22:53;;;;;;;2.65;2.45;;;;;;;12.82;100;94959.45;;;;
2021/08/30 02:23:54;;;;;;;2.65;2.45;;;;;;;12.82;100;94959.45;;;;
2021/08/30 02:25:01;;;;;;;2.65;2.45;;;;;;;12.82;100;94959.45;;;;
2021/08/30 02:26:09;;;;;;;2.65;2.45;;;;;;;12.82;100;94959.45;;;;
2021/08/30 02:27:14;;;;;;;2.65;2.45;;;;;;;12.82;100;94959.45;;;;
2021/08/30 02:28:20;;;;;;;2.65;2.45;;;;;;;12.82;100;94959.45;;;;
2021/08/30 02:29:22;;;;;;;3.05;2.75;;;;;;;12.79;100;94946.8;;;;
2021/08/30 02:30:28;;;;;;;3.05;2.75;;;;;;;12.79;100;94946.8;;;;
2021/08/30 02:31:32;;;;;;;3.05;2.75;;;;;;;12.79;100;94946.8;;;;
2021/08/30 02:32:34;;;;;;;3.05;2.75;;;;;;;12.79;100;94946.8;;;;
2021/08/30 02:33:36;;;;;;;3.05;2.75;;;;;;;12.79;100;94946.8;;;;
2021/08/30 02:34:38;;;;;;;3.05;2.75;;;;;;;12.79;100;94946.8;;;;
2021/08/30 02:35:42;;;;;;;3.05;2.75;;;;;;;12.79;100;94946.8;;;;
2021/08/30 02:36:43;;;;;;;3.05;2.75;;;;;;;12.79;100;94946.8;;;;
2021/08/30 02:37:45;;;;;;;3.05;2.75;;;;;;;12.79;100;94946.8;;;;
2021/08/30 02:38:48;;;;;;;3.05;2.75;;;;;;;12.79;100;94946.8;;;;
2021/08/30 02:39:51;;;;;;;3.100001;2.8;;;;;;;12.79;100;94940.17;;;;
2021/08/30 02:40:54;;;;;;;3.100001;2.8;;;;;;;12.79;100;94940.17;;;;
2021/08/30 02:41:55;;;;;;;3.100001;2.8;;;;;;;12.79;100;94940.17;;;;
2021/08/30 02:42:57;;;;;;;3.100001;2.8;;;;;;;12.79;100;94940.17;;;;
2021/08/30 02:44:01;;;;;;;3.100001;2.8;;;;;;;12.79;100;94940.17;;;;
2021/08/30 02:45:03;;;;;;;3.100001;2.8;;;;;;;12.79;100;94940.17;;;;
2021/08/30 02:46:06;;;;;;;3.100001;2.8;;;;;;;12.79;100;94940.17;;;;
2021/08/30 02:47:08;;;;;;;3.100001;2.8;;;;;;;12.79;100;94940.17;;;;
2021/08/30 02:48:10;;;;;;;3.100001;2.8;;;;;;;12.79;100;94940.17;;;;
2021/08/30 02:49:11;;;;;;;3.100001;2.8;;;;;;;12.79;100;94940.17;;;;
2021/08/30 02:50:13;;;;;;;3.100001;2.8;;;;;;;12.79;100;94940.17;;;;
2021/08/30 02:51:15;;;;;;;3;2.75;;;;;;;12.79;100;94940.59;;;;
2021/08/30 02:52:16;;;;;;;3;2.75;;;;;;;12.79;100;94940.59;;;;
2021/08/30 02:53:19;;;;;;;3;2.75;;;;;;;12.79;100;94940.59;;;;
2021/08/30 02:54:22;;;;;;;3;2.75;;;;;;;12.79;100;94940.59;;;;
2021/08/30 02:55:23;;;;;;;3;2.75;;;;;;;12.79;100;94940.59;;;;
2021/08/30 02:56:24;;;;;;;3;2.75;;;;;;;12.79;100;94940.59;;;;
2021/08/30 02:57:25;;;;;;;3;2.75;;;;;;;12.79;100;94940.59;;;;
2021/08/30 02:58:27;;;;;;;3;2.75;;;;;;;12.79;100;94940.59;;;;
2021/08/30 02:59:29;;;;;;;3;2.75;;;;;;;12.79;100;94940.59;;;;
2021/08/30 03:00:31;;;;;;;3;2.75;;;;;;;12.79;100;94940.59;;;;
2021/08/30 03:01:32;;;;;;;3.5;2.8;;;;;;;12.78;100;94934.34;;;;
2021/08/30 03:02:33;;;;;;;3.5;2.8;;;;;;;12.78;100;94934.34;;;;
2021/08/30 03:03:36;;;;;;;3.5;2.8;;;;;;;12.78;100;94934.34;;;;
2021/08/30 03:04:38;;;;;;;3.5;2.8;;;;;;;12.78;100;94934.34;;;;
2021/08/30 03:05:39;;;;;;;3.5;2.8;;;;;;;12.78;100;94934.34;;;;
2021/08/30 03:06:42;;;;;;;3.5;2.8;;;;;;;12.78;100;94934.34;;;;
2021/08/30 03:07:43;;;;;;;3.5;2.8;;;;;;;12.78;100;94934.34;;;;
2021/08/30 03:08:46;;;;;;;3.5;2.8;;;;;;;12.78;100;94934.34;;;;
2021/08/30 03:09:46;;;;;;;3.5;2.8;;;;;;;12.78;100;94934.34;;;;
2021/08/30 03:10:47;;;;;;;3.5;2.8;;;;;;;12.78;100;94934.34;;;;
2021/08/30 03:11:48;;;;;;;3.400001;3.1;;;;;;;12.82;100;94923.4;;;;
2021/08/30 03:12:51;;;;;;;3.400001;3.1;;;;;;;12.82;100;94923.4;;;;
2021/08/30 03:13:55;;;;;;;3.400001;3.1;;;;;;;12.82;100;94923.4;;;;
2021/08/30 03:14:57;;;;;;;3.400001;3.1;;;;;;;12.82;100;94923.4;;;;
2021/08/30 03:16:02;;;;;;;3.400001;3.1;;;;;;;12.82;100;94923.4;;;;
2021/08/30 03:17:03;;;;;;;3.400001;3.1;;;;;;;12.82;100;94923.4;;;;
2021/08/30 03:18:09;;;;;;;3.400001;3.1;;;;;;;12.82;100;94923.4;;;;
2021/08/30 03:19:12;;;;;;;3.400001;3.1;;;;;;;12.82;100;94923.4;;;;
2021/08/30 03:20:15;;;;;;;3.400001;3.1;;;;;;;12.82;100;94923.4;;;;
2021/08/30 03:21:22;;;;;;;3.400001;3.1;;;;;;;12.82;100;94923.4;;;;
2021/08/30 03:22:25;;;;;;;3.55;3.25;;;;;;;12.82;100;94918.39;;;;
2021/08/30 03:23:26;;;;;;;3.55;3.25;;;;;;;12.82;100;94918.39;;;;
2021/08/30 03:24:28;;;;;;;3.55;3.25;;;;;;;12.82;100;94918.39;;;;
2021/08/30 03:25:31;;;;;;;3.55;3.25;;;;;;;12.82;100;94918.39;;;;
2021/08/30 03:26:33;;;;;;;3.55;3.25;;;;;;;12.82;100;94918.39;;;;
2021/08/30 03:27:35;;;;;;;3.55;3.25;;;;;;;12.82;100;94918.39;;;;
2021/08/30 03:28:36;;;;;;;3.55;3.25;;;;;;;12.82;100;94918.39;;;;
2021/08/30 03:29:37;;;;;;;3.55;3.25;;;;;;;12.82;100;94918.39;;;;
2021/08/30 03:30:39;;;;;;;3.55;3.25;;;;;;;12.82;100;94918.39;;;;
2021/08/30 03:31:40;;;;;;;3.55;3.25;;;;;;;12.82;100;94918.39;;;;
2021/08/30 03:32:41;;;;;;;3.55;3.25;;;;;;;12.82;100;94918.39;;;;
2021/08/30 03:33:43;;;;;;;3.7;2.85;;;;;;;12.81;100;94908.23;;;;
2021/08/30 03:34:44;;;;;;;3.7;2.85;;;;;;;12.81;100;94908.23;;;;
2021/08/30 03:35:46;;;;;;;3.7;2.85;;;;;;;12.81;100;94908.23;;;;
2021/08/30 03:36:48;;;;;;;3.7;2.85;;;;;;;12.81;100;94908.23;;;;
2021/08/30 03:37:49;;;;;;;3.7;2.85;;;;;;;12.81;100;94908.23;;;;
2021/08/30 03:38:50;;;;;;;3.7;2.85;;;;;;;12.81;100;94908.23;;;;
2021/08/30 03:39:51;;;;;;;3.7;2.85;;;;;;;12.81;100;94908.23;;;;
2021/08/30 03:40:52;;;;;;;3.7;2.85;;;;;;;12.81;100;94908.23;;;;
2021/08/30 03:41:54;;;;;;;3.7;2.85;;;;;;;12.81;100;94908.23;;;;
2021/08/30 03:42:56;;;;;;;3.7;2.85;;;;;;;12.81;100;94908.23;;;;
2021/08/30 03:43:58;;;;;;;3.35;3.05;;;;;;;12.81;100;94905.38;;;;
2021/08/30 03:44:59;;;;;;;3.35;3.05;;;;;;;12.81;100;94905.38;;;;
2021/08/30 03:46:00;;;;;;;3.35;3.05;;;;;;;12.81;100;94905.38;;;;
2021/08/30 03:47:02;;;;;;;3.35;3.05;;;;;;;12.81;100;94905.38;;;;
2021/08/30 03:48:04;;;;;;;3.35;3.05;;;;;;;12.81;100;94905.38;;;;
2021/08/30 03:49:05;;;;;;;3.35;3.05;;;;;;;12.81;100;94905.38;;;;
2021/08/30 03:50:06;;;;;;;3.35;3.05;;;;;;;12.81;100;94905.38;;;;
2021/08/30 03:51:08;;;;;;;3.35;3.05;;;;;;;12.81;100;94905.38;;;;
2021/08/30 03:52:10;;;;;;;3.35;3.05;;;;;;;12.81;100;94905.38;;;;
2021/08/30 03:53:11;;;;;;;3.35;3.05;;;;;;;12.81;100;94905.38;;;;
2021/08/30 03:54:13;;;;;;;3.35;3.05;;;;;;;12.81;100;94905.38;;;;
2021/08/30 03:55:13;;;;;;;3.2;2.9;;;;;;;12.77;100;94905.22;;;;
2021/08/30 03:56:14;;;;;;;3.2;2.9;;;;;;;12.77;100;94905.22;;;;
2021/08/30 03:57:15;;;;;;;3.2;2.9;;;;;;;12.77;100;94905.22;;;;
2021/08/30 03:58:17;;;;;;;3.2;2.9;;;;;;;12.77;100;94905.22;;;;
2021/08/30 03:59:19;;;;;;;3.2;2.9;;;;;;;12.77;100;94905.22;;;;
2021/08/30 04:00:21;;;;;;;3.2;2.9;;;;;;;12.77;100;94905.22;;;;
2021/08/30 04:01:24;;;;;;;3.2;2.9;;;;;;;12.77;100;94905.22;;;;
2021/08/30 04:02:25;;;;;;;3.2;2.9;;;;;;;12.77;100;94905.22;;;;
2021/08/30 04:03:28;;;;;;;3.2;2.9;;;;;;;12.77;100;94905.22;;;;
2021/08/30 04:04:31;;;;;;;3.2;2.9;;;;;;;12.77;100;94905.22;;;;
2021/08/30 04:05:33;;;;;;;2.8;2.6;;;;;;;12.73;100;94906.81;;;;
2021/08/30 04:06:34;;;;;;;2.8;2.6;;;;;;;12.73;100;94906.81;;;;
2021/08/30 04:07:36;;;;;;;2.8;2.6;;;;;;;12.73;100;94906.81;;;;
2021/08/30 04:08:37;;;;;;;2.8;2.6;;;;;;;12.73;100;94906.81;;;;
2021/08/30 04:09:38;;;;;;;2.8;2.6;;;;;;;12.73;100;94906.81;;;;
2021/08/30 04:10:39;;;;;;;2.8;2.6;;;;;;;12.73;100;94906.81;;;;
2021/08/30 04:11:40;;;;;;;2.8;2.6;;;;;;;12.73;100;94906.81;;;;
2021/08/30 04:12:42;;;;;;;2.8;2.6;;;;;;;12.73;100;94906.81;;;;
2021/08/30 04:13:42;;;;;;;2.8;2.6;;;;;;;12.73;100;94906.81;;;;
2021/08/30 04:14:43;;;;;;;2.8;2.6;;;;;;;12.73;100;94906.81;;;;
2021/08/30 04:15:44;;;;;;;2.8;2.6;;;;;;;12.7;100;94899.58;;;;
2021/08/30 04:16:47;;;;;;;2.8;2.6;;;;;;;12.7;100;94899.58;;;;
2021/08/30 04:17:47;;;;;;;2.8;2.6;;;;;;;12.7;100;94899.58;;;;
2021/08/30 04:18:48;;;;;;;2.8;2.6;;;;;;;12.7;100;94899.58;;;;
2021/08/30 04:19:48;;;;;;;2.8;2.6;;;;;;;12.7;100;94899.58;;;;
2021/08/30 04:20:49;;;;;;;2.8;2.6;;;;;;;12.7;100;94899.58;;;;
2021/08/30 04:21:49;;;;;;;2.8;2.6;;;;;;;12.7;100;94899.58;;;;
2021/08/30 04:22:50;;;;;;;2.8;2.6;;;;;;;12.7;100;94899.58;;;;
2021/08/30 04:23:51;;;;;;;2.8;2.6;;;;;;;12.7;100;94899.58;;;;
2021/08/30 04:24:51;;;;;;;2.8;2.6;;;;;;;12.7;100;94899.58;;;;
2021/08/30 04:25:52;;;;;;;2.8;2.6;;;;;;;12.7;100;94899.58;;;;
2021/08/30 04:26:52;;;;;;;2.35;2.15;;;;;;;12.69;100;94896.73;;;;
2021/08/30 04:27:53;;;;;;;2.35;2.15;;;;;;;12.69;100;94896.73;;;;
2021/08/30 04:28:53;;;;;;;2.35;2.15;;;;;;;12.69;100;94896.73;;;;
2021/08/30 04:29:54;;;;;;;2.35;2.15;;;;;;;12.69;100;94896.73;;;;
2021/08/30 04:30:54;;;;;;;2.35;2.15;;;;;;;12.69;100;94896.73;;;;
2021/08/30 04:31:55;;;;;;;2.35;2.15;;;;;;;12.69;100;94896.73;;;;
2021/08/30 04:32:56;;;;;;;2.35;2.15;;;;;;;12.69;100;94896.73;;;;
2021/08/30 04:33:57;;;;;;;2.35;2.15;;;;;;;12.69;100;94896.73;;;;
2021/08/30 04:34:57;;;;;;;2.35;2.15;;;;;;;12.69;100;94896.73;;;;
2021/08/30 04:35:58;;;;;;;2.35;2.15;;;;;;;12.69;100;94896.73;;;;
2021/08/30 04:36:59;;;;;;;2.35;2.15;;;;;;;12.69;100;94896.73;;;;
2021/08/30 04:37:59;;;;;;;2.45;2.25;;;;;;;12.71;100;94881.86;;;;
2021/08/30 04:39:00;;;;;;;2.45;2.25;;;;;;;12.71;100;94881.86;;;;
2021/08/30 04:40:00;;;;;;;2.45;2.25;;;;;;;12.71;100;94881.86;;;;
2021/08/30 04:41:01;;;;;;;2.45;2.25;;;;;;;12.71;100;94881.86;;;;
2021/08/30 04:42:03;;;;;;;2.45;2.25;;;;;;;12.71;100;94881.86;;;;
2021/08/30 04:43:04;;;;;;;2.45;2.25;;;;;;;12.71;100;94881.86;;;;
2021/08/30 04:44:07;;;;;;;2.45;2.25;;;;;;;12.71;100;94881.86;;;;
2021/08/30 04:45:09;;;;;;;2.45;2.25;;;;;;;12.71;100;94881.86;;;;
2021/08/30 04:46:10;;;;;;;2.45;2.25;;;;;;;12.71;100;94881.86;;;;
2021/08/30 04:47:11;;;;;;;2.45;2.25;;;;;;;12.71;100;94881.86;;;;
2021/08/30 04:48:11;;;;;;;2.1;1.9;;;;;;;12.75;100;94885.28;;;;
2021/08/30 04:49:12;;;;;;;2.1;1.9;;;;;;;12.75;100;94885.28;;;;
2021/08/30 04:50:12;;;;;;;2.1;1.9;;;;;;;12.75;100;94885.28;;;;
2021/08/30 04:51:13;;;;;;;2.1;1.9;;;;;;;12.75;100;94885.28;;;;
2021/08/30 04:52:14;;;;;;;2.1;1.9;;;;;;;12.75;100;94885.28;;;;
2021/08/30 04:53:14;;;;;;;2.1;1.9;;;;;;;12.75;100;94885.28;;;;
2021/08/30 04:54:19;;;;;;;2.1;1.9;;;;;;;12.75;100;94885.28;;;;
2021/08/30 04:55:21;;;;;;;2.1;1.9;;;;;;;12.75;100;94885.28;;;;
2021/08/30 04:56:21;;;;;;;2.1;1.9;;;;;;;12.75;100;94885.28;;;;
2021/08/30 04:57:22;;;;;;;2.1;1.9;;;;;;;12.75;100;94885.28;;;;
2021/08/30 04:58:22;;;;;;;2.1;1.9;;;;;;;12.75;100;94885.28;;;;
2021/08/30 04:59:23;;;;;;;1.85;1.75;;;;;;;12.78;100;94879.75;;;;
2021/08/30 05:00:24;;;;;;;1.85;1.75;;;;;;;12.78;100;94879.75;;;;
2021/08/30 05:01:25;;;;;;;1.85;1.75;;;;;;;12.78;100;94879.75;;;;
2021/08/30 05:02:25;;;;;;;1.85;1.75;;;;;;;12.78;100;94879.75;;;;
2021/08/30 05:03:26;;;;;;;1.85;1.75;;;;;;;12.78;100;94879.75;;;;
2021/08/30 05:04:27;;;;;;;1.85;1.75;;;;;;;12.78;100;94879.75;;;;
2021/08/30 05:05:28;;;;;;;1.85;1.75;;;;;;;12.78;100;94879.75;;;;
2021/08/30 05:06:28;;;;;;;1.85;1.75;;;;;;;12.78;100;94879.75;;;;
2021/08/30 05:07:29;;;;;;;1.85;1.75;;;;;;;12.78;100;94879.75;;;;
2021/08/30 05:08:29;;;;;;;1.85;1.75;;;;;;;12.78;100;94879.75;;;;
2021/08/30 05:09:30;;;;;;;2.1;2;;;;;;;12.72;100;94881.19;;;;
2021/08/30 05:10:31;;;;;;;2.1;2;;;;;;;12.72;100;94881.19;;;;
2021/08/30 05:11:32;;;;;;;2.1;2;;;;;;;12.72;100;94881.19;;;;
2021/08/30 05:12:33;;;;;;;2.1;2;;;;;;;12.72;100;94881.19;;;;
2021/08/30 05:13:33;;;;;;;2.1;2;;;;;;;12.72;100;94881.19;;;;
2021/08/30 05:14:35;;;;;;;2.1;2;;;;;;;12.72;100;94881.19;;;;
2021/08/30 05:15:35;;;;;;;2.1;2;;;;;;;12.72;100;94881.19;;;;
2021/08/30 05:16:36;;;;;;;2.1;2;;;;;;;12.72;100;94881.19;;;;
2021/08/30 05:17:36;;;;;;;2.1;2;;;;;;;12.72;100;94881.19;;;;
2021/08/30 05:18:39;;;;;;;2.1;2;;;;;;;12.72;100;94881.19;;;;
2021/08/30 05:19:40;;;;;;;2.1;2;;;;;;;12.72;100;94881.19;;;;
2021/08/30 05:20:40;;;;;;;2.7;2;;;;;;;12.7;100;94867.22;;;;
2021/08/30 05:21:41;;;;;;;2.7;2;;;;;;;12.7;100;94867.22;;;;
2021/08/30 05:22:42;;;;;;;2.7;2;;;;;;;12.7;100;94867.22;;;;
2021/08/30 05:23:42;;;;;;;2.7;2;;;;;;;12.7;100;94867.22;;;;
2021/08/30 05:24:43;;;;;;;2.7;2;;;;;;;12.7;100;94867.22;;;;
2021/08/30 05:25:44;;;;;;;2.7;2;;;;;;;12.7;100;94867.22;;;;
2021/08/30 05:26:45;;;;;;;2.7;2;;;;;;;12.7;100;94867.22;;;;
2021/08/30 05:27:48;;;;;;;2.7;2;;;;;;;12.7;100;94867.22;;;;
2021/08/30 05:28:49;;;;;;;2.7;2;;;;;;;12.7;100;94867.22;;;;
2021/08/30 05:29:49;;;;;;;2.7;2;;;;;;;12.7;100;94867.22;;;;
2021/08/30 05:30:50;;;;;;;2.1;2;;;;;;;12.72;100;94870.5;;;;
2021/08/30 05:31:50;;;;;;;2.1;2;;;;;;;12.72;100;94870.5;;;;
2021/08/30 05:32:51;;;;;;;2.1;2;;;;;;;12.72;100;94870.5;;;;
2021/08/30 05:33:51;;;;;;;2.1;2;;;;;;;12.72;100;94870.5;;;;
2021/08/30 05:34:52;;;;;;;2.1;2;;;;;;;12.72;100;94870.5;;;;
2021/08/30 05:35:52;;;;;;;2.1;2;;;;;;;12.72;100;94870.5;;;;
2021/08/30 05:36:53;;;;;;;2.1;2;;;;;;;12.72;100;94870.5;;;;
2021/08/30 05:37:53;;;;;;;2.1;2;;;;;;;12.72;100;94870.5;;;;
2021/08/30 05:38:54;;;;;;;2.1;2;;;;;;;12.72;100;94870.5;;;;
2021/08/30 05:39:55;;;;;;;2.1;2;;;;;;;12.72;100;94870.5;;;;
2021/08/30 05:40:56;;;;;;;2.1;2;;;;;;;12.72;100;94870.5;;;;
2021/08/30 05:41:56;;;;;;;2.299999;2.1;;;;;;;12.71;100;94859.78;;;;
2021/08/30 05:42:57;;;;;;;2.299999;2.1;;;;;;;12.71;100;94859.78;;;;
2021/08/30 05:43:57;;;;;;;2.299999;2.1;;;;;;;12.71;100;94859.78;;;;
2021/08/30 05:44:58;;;;;;;2.299999;2.1;;;;;;;12.71;100;94859.78;;;;
2021/08/30 05:45:58;;;;;;;2.299999;2.1;;;;;;;12.71;100;94859.78;;;;
2021/08/30 05:46:59;;;;;;;2.299999;2.1;;;;;;;12.71;100;94859.78;;;;
2021/08/30 05:47:59;;;;;;;2.299999;2.1;;;;;;;12.71;100;94859.78;;;;
2021/08/30 05:49:00;;;;;;;2.299999;2.1;;;;;;;12.71;100;94859.78;;;;
2021/08/30 05:50:01;;;;;;;2.299999;2.1;;;;;;;12.71;100;94859.78;;;;
2021/08/30 05:51:02;;;;;;;2.299999;2.1;;;;;;;12.71;100;94859.78;;;;
2021/08/30 05:52:03;;;;;;;2.3;2.1;;;;;;;12.68;100;94858.95;;;;
2021/08/30 05:53:04;;;;;;;2.3;2.1;;;;;;;12.68;100;94858.95;;;;
2021/08/30 05:54:05;;;;;;;2.3;2.1;;;;;;;12.68;100;94858.95;;;;
2021/08/30 05:55:05;;;;;;;2.3;2.1;;;;;;;12.68;100;94858.95;;;;
2021/08/30 05:56:07;;;;;;;2.3;2.1;;;;;;;12.68;100;94858.95;;;;
2021/08/30 05:57:09;;;;;;;2.3;2.1;;;;;;;12.68;100;94858.95;;;;
2021/08/30 05:58:09;;;;;;;2.3;2.1;;;;;;;12.68;100;94858.95;;;;
2021/08/30 05:59:10;;;;;;;2.3;2.1;;;;;;;12.68;100;94858.95;;;;
2021/08/30 06:00:10;;;;;;;2.3;2.1;;;;;;;12.68;100;94858.95;;;;
2021/08/30 06:01:12;;;;;;;2.3;2.1;;;;;;;12.68;100;94858.95;;;;
2021/08/30 06:02:13;;;;;;;2.3;2.1;;;;;;;12.68;100;94858.95;;;;
2021/08/30 06:03:13;;;;;;;2.15;2;;;;;;;12.69;100;94846.09;;;;
2021/08/30 06:04:14;;;;;;;2.15;2;;;;;;;12.69;100;94846.09;;;;
2021/08/30 06:05:15;;;;;;;2.15;2;;;;;;;12.69;100;94846.09;;;;
2021/08/30 06:06:15;;;;;;;2.15;2;;;;;;;12.69;100;94846.09;;;;
2021/08/30 06:07:16;;;;;;;2.15;2;;;;;;;12.69;100;94846.09;;;;
2021/08/30 06:08:17;;;;;;;2.15;2;;;;;;;12.69;100;94846.09;;;;
2021/08/30 06:09:18;;;;;;;2.15;2;;;;;;;12.69;100;94846.09;;;;
2021/08/30 06:10:18;;;;;;;2.15;2;;;;;;;12.69;100;94846.09;;;;
2021/08/30 06:11:19;;;;;;;2.15;2;;;;;;;12.69;100;94846.09;;;;
2021/08/30 06:12:19;;;;;;;2.15;2;;;;;;;12.69;100;94846.09;;;;
2021/08/30 06:13:20;;;;;;;1.8;1.7;;;;;;;12.77;100;94843.85;;;;
2021/08/30 06:14:21;;;;;;;1.8;1.7;;;;;;;12.77;100;94843.85;;;;
2021/08/30 06:15:22;;;;;;;1.8;1.7;;;;;;;12.77;100;94843.85;;;;
2021/08/30 06:16:23;;;;;;;1.8;1.7;;;;;;;12.77;100;94843.85;;;;
2021/08/30 06:17:23;;;;;;;1.8;1.7;;;;;;;12.77;100;94843.85;;;;
2021/08/30 06:18:25;;;;;;;1.8;1.7;;;;;;;12.77;100;94843.85;;;;
2021/08/30 06:19:26;;;;;;;1.8;1.7;;;;;;;12.77;100;94843.85;;;;
2021/08/30 06:20:26;;;;;;;1.8;1.7;;;;;;;12.77;100;94843.85;;;;
2021/08/30 06:21:27;;;;;;;1.8;1.7;;;;;;;12.77;100;94843.85;;;;
2021/08/30 06:22:27;;;;;;;1.8;1.7;;;;;;;12.77;100;94843.85;;;;
2021/08/30 06:23:30;;;;;;;1.8;1.7;;;;;;;12.77;100;94843.85;;;;
2021/08/30 06:24:30;;;;;;;1.5;1.4;;;;;;;12.88;100;94852.34;;;;
2021/08/30 06:25:31;;;;;;;1.5;1.4;;;;;;;12.88;100;94852.34;;;;
2021/08/30 06:26:32;;;;;;;1.5;1.4;;;;;;;12.88;100;94852.34;;;;
2021/08/30 06:27:33;;;;;;;1.5;1.4;;;;;;;12.88;100;94852.34;;;;
2021/08/30 06:28:34;;;;;;;1.5;1.4;;;;;;;12.88;100;94852.34;;;;